Главная страница
METAR-TAF:

METAR-TAF

Аэропорты :

Трентон, Онтарио, Канада

широта: 44-07N, долгота: 077-32W, высота над уровнем моря: 85 м

Текущие метеонаблюдения

Эта сводка был подготовлена 29 минут назад, в 00:00 UTC
Ветер 7 Узел от северо-западный
Температура 23°C
Влажность 29%
Давление 1016 hPa
Видимость: 24.1 км
Рассеянная облачность на высоте 25000 фута

METAR: CYTR 240000Z 31007KT 15SM BKN250 23/04 A3001 RMK CI7 SLP163

Время: 20:29 (00:29 UTC)

Прогноз

Эта сводка был подготовлена 59 минут назад, в 23:30 UTC
Прогноз действительный с 24-го 00 UTC до 24-го 24 UTC
Ветер 10 Узел от северо-западный с порывами до 20 Узел
Видимость: 10 км
Рассеянная облачность на высоте 25000 фута
изменения
С 24-го 01 UTC до 24-го 03 UTC
Ветер 5 Узел от северно-северо-западный
изменения
С 24-го 06 UTC до 24-го 08 UTC
Ветер 3 Узел переменных направлений

TAF: CYTR 232330Z 2400/2424 32010G20KT P6SM BKN250 BECMG 2401/2403 33005KT BECMG 2406/2408 VRB03KT RMK NXT FCST BY 240600Z

Метеонаблюдения и прогнозы для более 4000 аэропортов (сводки METAR и TAF).

Имеющиеся станции представлены на карте желтыми и красными точками.

Чтобы увидеть название станции, наведите на нее мышь.

Затем щелкните, чтобы увидеть метеонаблюдения и метеопрогнозы.

Управление картой: чтобы увеличить масштаб, щелкните зеленые кнопки с черным крестиком; чтобы уменьшить масштаб, щелкните зеленую кнопку с тире; для просмотра соседних карт щелкайте зеленые стрелки.


METAR-TAF: